sensor_id;sensor_type;location;lat;lon;timestamp;pressure;altitude;pressure_sealevel;temperature;humidity
11329;BME280;5719;42.714;23.732;2023-10-09T00:01:43;94868.97;;;18.41;59.25
11329;BME280;5719;42.714;23.732;2023-10-09T00:04:10;94863.81;;;18.32;58.44
11329;BME280;5719;42.714;23.732;2023-10-09T00:06:37;94870.41;;;18.36;59.01
11329;BME280;5719;42.714;23.732;2023-10-09T00:09:04;94863.56;;;18.25;58.62
11329;BME280;5719;42.714;23.732;2023-10-09T00:11:56;94850.09;;;18.20;58.35
11329;BME280;5719;42.714;23.732;2023-10-09T00:14:25;94863.50;;;18.17;58.28
11329;BME280;5719;42.714;23.732;2023-10-09T00:16:52;94864.75;;;18.13;58.30
11329;BME280;5719;42.714;23.732;2023-10-09T00:19:30;94864.44;;;18.16;58.34
11329;BME280;5719;42.714;23.732;2023-10-09T00:21:58;94855.94;;;18.14;58.43
11329;BME280;5719;42.714;23.732;2023-10-09T00:24:32;94861.53;;;18.19;58.31
11329;BME280;5719;42.714;23.732;2023-10-09T00:26:59;94864.06;;;18.11;58.16
11329;BME280;5719;42.714;23.732;2023-10-09T00:29:39;94868.31;;;18.12;58.23
11329;BME280;5719;42.714;23.732;2023-10-09T00:32:11;94872.72;;;18.11;57.94
11329;BME280;5719;42.714;23.732;2023-10-09T00:34:48;94867.81;;;18.08;57.90
11329;BME280;5719;42.714;23.732;2023-10-09T00:37:16;94860.78;;;18.09;58.19
11329;BME280;5719;42.714;23.732;2023-10-09T00:39:48;94859.41;;;18.05;59.80
11329;BME280;5719;42.714;23.732;2023-10-09T00:42:21;94869.66;;;17.98;59.83
11329;BME280;5719;42.714;23.732;2023-10-09T00:44:54;94873.66;;;17.93;59.52
11329;BME280;5719;42.714;23.732;2023-10-09T00:47:21;94880.88;;;17.81;60.24
11329;BME280;5719;42.714;23.732;2023-10-09T00:49:56;94889.44;;;17.74;60.87
11329;BME280;5719;42.714;23.732;2023-10-09T00:52:30;94889.75;;;17.61;63.10
11329;BME280;5719;42.714;23.732;2023-10-09T00:55:04;94878.47;;;17.60;62.89
11329;BME280;5719;42.714;23.732;2023-10-09T00:57:39;94882.59;;;17.53;63.43
11329;BME280;5719;42.714;23.732;2023-10-09T01:00:09;94873.78;;;17.54;63.28
11329;BME280;5719;42.714;23.732;2023-10-09T01:02:58;94881.63;;;17.54;63.36
11329;BME280;5719;42.714;23.732;2023-10-09T01:05:39;94886.72;;;17.46;64.27
11329;BME280;5719;42.714;23.732;2023-10-09T01:08:11;94893.78;;;17.36;64.79
11329;BME280;5719;42.714;23.732;2023-10-09T01:10:50;94902.56;;;17.35;64.34
11329;BME280;5719;42.714;23.732;2023-10-09T01:13:22;94903.53;;;17.34;64.00
11329;BME280;5719;42.714;23.732;2023-10-09T01:16:06;94901.91;;;17.33;63.78
11329;BME280;5719;42.714;23.732;2023-10-09T01:18:34;94898.06;;;17.28;64.10
11329;BME280;5719;42.714;23.732;2023-10-09T01:21:06;94905.63;;;17.21;64.97
11329;BME280;5719;42.714;23.732;2023-10-09T01:23:34;94918.28;;;17.06;65.99
11329;BME280;5719;42.714;23.732;2023-10-09T01:26:08;94912.66;;;16.92;66.50
11329;BME280;5719;42.714;23.732;2023-10-09T01:28:35;94925.03;;;16.80;67.55
11329;BME280;5719;42.714;23.732;2023-10-09T01:31:03;94934.63;;;16.60;68.60
11329;BME280;5719;42.714;23.732;2023-10-09T01:33:32;94944.63;;;16.46;69.55
11329;BME280;5719;42.714;23.732;2023-10-09T01:36:02;94943.72;;;16.26;71.03
11329;BME280;5719;42.714;23.732;2023-10-09T01:38:30;94934.38;;;16.24;70.73
11329;BME280;5719;42.714;23.732;2023-10-09T01:41:10;94931.06;;;16.22;71.02
11329;BME280;5719;42.714;23.732;2023-10-09T01:43:41;94929.41;;;16.11;70.35
11329;BME280;5719;42.714;23.732;2023-10-09T01:46:10;94932.72;;;16.13;70.31
11329;BME280;5719;42.714;23.732;2023-10-09T01:48:37;94941.59;;;16.10;69.98
11329;BME280;5719;42.714;23.732;2023-10-09T01:51:13;94948.47;;;16.02;70.62
11329;BME280;5719;42.714;23.732;2023-10-09T01:53:42;94951.56;;;15.96;71.29
11329;BME280;5719;42.714;23.732;2023-10-09T01:56:11;94955.31;;;16.03;71.06
11329;BME280;5719;42.714;23.732;2023-10-09T01:58:41;94958.88;;;16.02;71.71
11329;BME280;5719;42.714;23.732;2023-10-09T02:01:10;94950.88;;;15.94;71.26
11329;BME280;5719;42.714;23.732;2023-10-09T02:03:38;94959.94;;;15.90;71.06
11329;BME280;5719;42.714;23.732;2023-10-09T02:06:07;94941.94;;;15.87;70.52
11329;BME280;5719;42.714;23.732;2023-10-09T02:08:51;94958.72;;;15.94;70.67
11329;BME280;5719;42.714;23.732;2023-10-09T02:11:20;94955.81;;;15.87;70.69
11329;BME280;5719;42.714;23.732;2023-10-09T02:14:03;94964.88;;;15.93;69.40
11329;BME280;5719;42.714;23.732;2023-10-09T02:16:41;94972.31;;;15.97;69.62
11329;BME280;5719;42.714;23.732;2023-10-09T02:19:08;94976.16;;;16.03;69.28
11329;BME280;5719;42.714;23.732;2023-10-09T02:21:54;94970.94;;;16.03;70.19
11329;BME280;5719;42.714;23.732;2023-10-09T02:24:23;94974.28;;;16.05;69.53
11329;BME280;5719;42.714;23.732;2023-10-09T02:27:09;94964.38;;;15.99;68.50
11329;BME280;5719;42.714;23.732;2023-10-09T02:29:38;94969.78;;;15.86;68.07
11329;BME280;5719;42.714;23.732;2023-10-09T02:32:08;94971.16;;;15.81;67.48
11329;BME280;5719;42.714;23.732;2023-10-09T02:34:50;94972.78;;;15.82;67.15
11329;BME280;5719;42.714;23.732;2023-10-09T02:37:19;94970.31;;;15.80;67.20
11329;BME280;5719;42.714;23.732;2023-10-09T02:39:49;94977.91;;;15.62;67.01
11329;BME280;5719;42.714;23.732;2023-10-09T02:42:19;94984.50;;;15.66;67.40
11329;BME280;5719;42.714;23.732;2023-10-09T02:44:49;94986.97;;;15.68;66.94
11329;BME280;5719;42.714;23.732;2023-10-09T02:47:17;94985.16;;;15.59;67.78
11329;BME280;5719;42.714;23.732;2023-10-09T02:49:47;94992.78;;;15.51;67.71
11329;BME280;5719;42.714;23.732;2023-10-09T02:52:17;94995.41;;;15.40;68.80
11329;BME280;5719;42.714;23.732;2023-10-09T02:54:51;94993.63;;;15.40;68.71
11329;BME280;5719;42.714;23.732;2023-10-09T02:57:26;94989.63;;;15.36;68.31
11329;BME280;5719;42.714;23.732;2023-10-09T03:00:03;95003.59;;;15.35;69.08
11329;BME280;5719;42.714;23.732;2023-10-09T03:02:34;95005.75;;;15.30;68.75
11329;BME280;5719;42.714;23.732;2023-10-09T03:05:05;95018.34;;;15.25;68.50
11329;BME280;5719;42.714;23.732;2023-10-09T03:07:37;95028.28;;;15.20;69.18
11329;BME280;5719;42.714;23.732;2023-10-09T03:10:06;95035.66;;;15.15;70.19
11329;BME280;5719;42.714;23.732;2023-10-09T03:12:36;95043.00;;;15.10;70.49
11329;BME280;5719;42.714;23.732;2023-10-09T03:15:06;95039.81;;;15.06;70.65
11329;BME280;5719;42.714;23.732;2023-10-09T03:17:34;95030.75;;;15.01;70.24
11329;BME280;5719;42.714;23.732;2023-10-09T03:20:03;95031.81;;;14.98;70.81
11329;BME280;5719;42.714;23.732;2023-10-09T03:22:37;95038.94;;;14.85;71.28
11329;BME280;5719;42.714;23.732;2023-10-09T03:25:05;95040.84;;;14.72;71.98
11329;BME280;5719;42.714;23.732;2023-10-09T03:27:38;95049.50;;;14.61;72.16
11329;BME280;5719;42.714;23.732;2023-10-09T03:30:11;95063.72;;;14.46;72.88
11329;BME280;5719;42.714;23.732;2023-10-09T03:32:44;95058.06;;;14.41;72.92
11329;BME280;5719;42.714;23.732;2023-10-09T03:35:16;95060.91;;;14.38;72.39
11329;BME280;5719;42.714;23.732;2023-10-09T03:37:51;95068.31;;;14.43;71.71
11329;BME280;5719;42.714;23.732;2023-10-09T03:40:18;95062.53;;;14.39;71.96
11329;BME280;5719;42.714;23.732;2023-10-09T03:42:48;95064.44;;;14.37;71.71
11329;BME280;5719;42.714;23.732;2023-10-09T03:45:15;95067.97;;;14.36;71.73
11329;BME280;5719;42.714;23.732;2023-10-09T03:47:52;95076.81;;;14.34;71.66
11329;BME280;5719;42.714;23.732;2023-10-09T03:50:27;95083.78;;;14.33;71.75
11329;BME280;5719;42.714;23.732;2023-10-09T03:53:02;95078.00;;;14.30;72.10
11329;BME280;5719;42.714;23.732;2023-10-09T03:55:32;95080.13;;;14.24;72.11
11329;BME280;5719;42.714;23.732;2023-10-09T03:58:00;95080.91;;;14.03;73.24
11329;BME280;5719;42.714;23.732;2023-10-09T04:00:27;95083.41;;;14.04;74.34
11329;BME280;5719;42.714;23.732;2023-10-09T04:02:55;95087.09;;;14.02;74.47
11329;BME280;5719;42.714;23.732;2023-10-09T04:05:22;95083.75;;;14.00;73.58
11329;BME280;5719;42.714;23.732;2023-10-09T04:07:49;95083.16;;;13.96;73.23
11329;BME280;5719;42.714;23.732;2023-10-09T04:10:18;95086.81;;;13.94;73.13
11329;BME280;5719;42.714;23.732;2023-10-09T04:13:18;95090.00;;;13.86;72.91
11329;BME280;5719;42.714;23.732;2023-10-09T04:15:49;95093.53;;;13.85;72.41
11329;BME280;5719;42.714;23.732;2023-10-09T04:18:19;95096.50;;;13.81;72.76
11329;BME280;5719;42.714;23.732;2023-10-09T04:20:54;95075.56;;;13.71;72.59
11329;BME280;5719;42.714;23.732;2023-10-09T04:23:38;95092.34;;;13.78;72.86
11329;BME280;5719;42.714;23.732;2023-10-09T04:26:19;95089.47;;;13.70;73.42
11329;BME280;5719;42.714;23.732;2023-10-09T04:28:47;95090.44;;;13.69;73.00
11329;BME280;5719;42.714;23.732;2023-10-09T04:31:18;95087.06;;;13.56;73.49
11329;BME280;5719;42.714;23.732;2023-10-09T04:33:45;95090.84;;;13.52;74.15
11329;BME280;5719;42.714;23.732;2023-10-09T04:36:19;95096.38;;;13.47;74.09
11329;BME280;5719;42.714;23.732;2023-10-09T04:38:54;95093.63;;;13.38;74.20
11329;BME280;5719;42.714;23.732;2023-10-09T04:41:41;95093.63;;;13.38;74.40
11329;BME280;5719;42.714;23.732;2023-10-09T04:44:23;95099.16;;;13.33;73.86
11329;BME280;5719;42.714;23.732;2023-10-09T04:46:55;95093.47;;;13.28;73.61
11329;BME280;5719;42.714;23.732;2023-10-09T04:49:39;95105.47;;;12.82;76.72
11329;BME280;5719;42.714;23.732;2023-10-09T04:52:15;95105.56;;;11.93;84.94
11329;BME280;5719;42.714;23.732;2023-10-09T04:54:56;95113.84;;;12.11;83.80
11329;BME280;5719;42.714;23.732;2023-10-09T04:57:30;95116.03;;;12.04;84.03
11329;BME280;5719;42.714;23.732;2023-10-09T05:00:06;95114.06;;;12.08;84.00
11329;BME280;5719;42.714;23.732;2023-10-09T05:02:48;95114.88;;;12.21;83.40
11329;BME280;5719;42.714;23.732;2023-10-09T05:05:20;95120.16;;;12.32;83.45
11329;BME280;5719;42.714;23.732;2023-10-09T05:08:01;95121.00;;;12.33;83.44
11329;BME280;5719;42.714;23.732;2023-10-09T05:10:44;95127.00;;;12.46;83.16
11329;BME280;5719;42.714;23.732;2023-10-09T05:13:31;95131.47;;;12.56;82.88
11329;BME280;5719;42.714;23.732;2023-10-09T05:16:11;95133.91;;;12.70;82.51
11329;BME280;5719;42.714;23.732;2023-10-09T05:18:41;95128.06;;;12.79;82.15
11329;BME280;5719;42.714;23.732;2023-10-09T05:21:10;95132.31;;;12.93;81.26
11329;BME280;5719;42.714;23.732;2023-10-09T05:23:51;95139.75;;;12.98;81.23
11329;BME280;5719;42.714;23.732;2023-10-09T05:26:31;95139.53;;;13.13;80.77
11329;BME280;5719;42.714;23.732;2023-10-09T05:29:17;95149.75;;;13.27;79.96
11329;BME280;5719;42.714;23.732;2023-10-09T05:32:02;95148.66;;;13.43;79.25
11329;BME280;5719;42.714;23.732;2023-10-09T05:34:39;95148.13;;;13.50;78.46
11329;BME280;5719;42.714;23.732;2023-10-09T05:37:26;95158.78;;;13.58;78.60
11329;BME280;5719;42.714;23.732;2023-10-09T05:39:58;95153.84;;;13.66;78.63
11329;BME280;5719;42.714;23.732;2023-10-09T05:42:46;95152.97;;;13.90;76.92
11329;BME280;5719;42.714;23.732;2023-10-09T05:45:23;95160.13;;;14.10;76.10
11329;BME280;5719;42.714;23.732;2023-10-09T05:48:08;95161.09;;;14.20;75.82
11329;BME280;5719;42.714;23.732;2023-10-09T05:51:06;95170.97;;;14.39;74.19
11329;BME280;5719;42.714;23.732;2023-10-09T05:53:55;95175.72;;;14.45;74.91
11329;BME280;5719;42.714;23.732;2023-10-09T05:56:37;95174.38;;;14.39;73.83
11329;BME280;5719;42.714;23.732;2023-10-09T05:59:21;95173.44;;;14.40;76.42
11329;BME280;5719;42.714;23.732;2023-10-09T06:02:06;95186.25;;;14.54;75.45
11329;BME280;5719;42.714;23.732;2023-10-09T06:05:00;95191.59;;;14.64;70.77
11329;BME280;5719;42.714;23.732;2023-10-09T06:07:45;95193.97;;;14.89;68.08
11329;BME280;5719;42.714;23.732;2023-10-09T06:10:30;95190.38;;;15.01;62.47
11329;BME280;5719;42.714;23.732;2023-10-09T06:13:05;95189.19;;;15.16;62.74
11329;BME280;5719;42.714;23.732;2023-10-09T06:15:36;95206.59;;;15.27;62.37
11329;BME280;5719;42.714;23.732;2023-10-09T06:18:34;95207.16;;;15.42;61.22
11329;BME280;5719;42.714;23.732;2023-10-09T06:21:02;95208.44;;;15.69;59.53
11329;BME280;5719;42.714;23.732;2023-10-09T06:23:51;95216.72;;;16.06;56.71
11329;BME280;5719;42.714;23.732;2023-10-09T06:26:35;95210.78;;;16.04;56.29
11329;BME280;5719;42.714;23.732;2023-10-09T06:29:02;95222.00;;;16.16;55.48
11329;BME280;5719;42.714;23.732;2023-10-09T06:31:42;95230.78;;;16.36;53.05
11329;BME280;5719;42.714;23.732;2023-10-09T06:34:23;95228.44;;;16.64;52.64
11329;BME280;5719;42.714;23.732;2023-10-09T06:36:59;95228.34;;;16.76;51.59
11329;BME280;5719;42.714;23.732;2023-10-09T06:39:31;95233.16;;;17.01;49.25
11329;BME280;5719;42.714;23.732;2023-10-09T06:42:15;95226.88;;;17.13;46.46
11329;BME280;5719;42.714;23.732;2023-10-09T06:45:11;95238.75;;;16.96;47.28
11329;BME280;5719;42.714;23.732;2023-10-09T06:47:42;95245.31;;;17.11;48.09
11329;BME280;5719;42.714;23.732;2023-10-09T06:50:19;95250.19;;;17.35;46.71
11329;BME280;5719;42.714;23.732;2023-10-09T06:53:08;95237.47;;;17.51;46.44
11329;BME280;5719;42.714;23.732;2023-10-09T06:55:54;95245.41;;;17.80;45.38
11329;BME280;5719;42.714;23.732;2023-10-09T06:58:30;95229.59;;;18.01;45.33
11329;BME280;5719;42.714;23.732;2023-10-09T07:01:08;95239.50;;;18.07;44.45
11329;BME280;5719;42.714;23.732;2023-10-09T07:03:54;95234.78;;;17.62;45.72
11329;BME280;5719;42.714;23.732;2023-10-09T07:06:26;95222.03;;;17.88;46.13
11329;BME280;5719;42.714;23.732;2023-10-09T07:09:06;95239.13;;;18.21;44.51
11329;BME280;5719;42.714;23.732;2023-10-09T07:11:45;95242.69;;;18.20;48.40
11329;BME280;5719;42.714;23.732;2023-10-09T07:14:25;95244.06;;;18.05;50.17
11329;BME280;5719;42.714;23.732;2023-10-09T07:17:11;95243.22;;;18.04;49.72
11329;BME280;5719;42.714;23.732;2023-10-09T07:19:49;95236.34;;;18.13;49.96
11329;BME280;5719;42.714;23.732;2023-10-09T07:22:33;95241.88;;;18.10;49.50
11329;BME280;5719;42.714;23.732;2023-10-09T07:25:05;95235.50;;;18.22;49.45
11329;BME280;5719;42.714;23.732;2023-10-09T07:27:42;95238.69;;;18.26;48.96
11329;BME280;5719;42.714;23.732;2023-10-09T07:30:10;95239.09;;;18.31;48.22
11329;BME280;5719;42.714;23.732;2023-10-09T07:33:03;95239.81;;;18.52;47.94
11329;BME280;5719;42.714;23.732;2023-10-09T07:35:43;95224.78;;;18.64;47.49
11329;BME280;5719;42.714;23.732;2023-10-09T07:38:20;95236.34;;;18.51;46.44
11329;BME280;5719;42.714;23.732;2023-10-09T07:40:48;95234.97;;;18.67;46.70
11329;BME280;5719;42.714;23.732;2023-10-09T07:43:21;95242.81;;;18.67;46.36
11329;BME280;5719;42.714;23.732;2023-10-09T07:45:52;95247.66;;;18.42;47.76
11329;BME280;5719;42.714;23.732;2023-10-09T07:48:38;95242.97;;;18.27;47.19
11329;BME280;5719;42.714;23.732;2023-10-09T07:51:17;95227.53;;;18.62;46.29
11329;BME280;5719;42.714;23.732;2023-10-09T07:53:45;95227.72;;;18.97;44.52
11329;BME280;5719;42.714;23.732;2023-10-09T07:56:15;95227.53;;;18.43;46.04
11329;BME280;5719;42.714;23.732;2023-10-09T07:58:46;95229.75;;;18.57;44.94
11329;BME280;5719;42.714;23.732;2023-10-09T08:01:14;95223.38;;;18.40;45.09
11329;BME280;5719;42.714;23.732;2023-10-09T08:03:50;95235.66;;;18.11;45.96
11329;BME280;5719;42.714;23.732;2023-10-09T08:06:27;95251.91;;;18.43;44.89
11329;BME280;5719;42.714;23.732;2023-10-09T08:09:08;95252.06;;;18.42;45.25
11329;BME280;5719;42.714;23.732;2023-10-09T08:12:04;95250.38;;;18.22;45.59
11329;BME280;5719;42.714;23.732;2023-10-09T08:14:56;95243.41;;;18.60;44.19
11329;BME280;5719;42.714;23.732;2023-10-09T08:17:38;95243.75;;;18.85;44.09
11329;BME280;5719;42.714;23.732;2023-10-09T08:20:06;95244.84;;;19.01;43.20
11329;BME280;5719;42.714;23.732;2023-10-09T08:22:37;95235.09;;;19.21;42.83
11329;BME280;5719;42.714;23.732;2023-10-09T08:25:18;95245.44;;;18.38;44.07
11329;BME280;5719;42.714;23.732;2023-10-09T08:27:56;95238.69;;;18.35;43.36
11329;BME280;5719;42.714;23.732;2023-10-09T08:30:45;95232.38;;;18.57;43.10
11329;BME280;5719;42.714;23.732;2023-10-09T08:33:29;95230.28;;;18.80;42.38
11329;BME280;5719;42.714;23.732;2023-10-09T08:36:10;95236.31;;;18.90;41.60
11329;BME280;5719;42.714;23.732;2023-10-09T08:38:40;95229.47;;;18.31;42.47
11329;BME280;5719;42.714;23.732;2023-10-09T08:41:08;95227.81;;;18.21;42.98
11329;BME280;5719;42.714;23.732;2023-10-09T08:43:50;95220.78;;;18.31;42.06
11329;BME280;5719;42.714;23.732;2023-10-09T08:46:19;95222.38;;;18.89;41.38
11329;BME280;5719;42.714;23.732;2023-10-09T08:48:46;95220.13;;;19.31;40.71
11329;BME280;5719;42.714;23.732;2023-10-09T08:51:14;95218.50;;;19.30;40.81
11329;BME280;5719;42.714;23.732;2023-10-09T08:53:43;95202.47;;;19.61;40.33
11329;BME280;5719;42.714;23.732;2023-10-09T08:56:12;95206.31;;;19.12;40.90
11329;BME280;5719;42.714;23.732;2023-10-09T08:58:41;95206.44;;;19.47;40.27
11329;BME280;5719;42.714;23.732;2023-10-09T09:01:08;95195.97;;;19.65;39.26
11329;BME280;5719;42.714;23.732;2023-10-09T09:03:41;95199.16;;;19.86;38.55
11329;BME280;5719;42.714;23.732;2023-10-09T09:06:10;95198.22;;;19.60;38.21
11329;BME280;5719;42.714;23.732;2023-10-09T09:08:38;95199.09;;;19.23;39.98
11329;BME280;5719;42.714;23.732;2023-10-09T09:11:08;95197.03;;;19.17;39.32
11329;BME280;5719;42.714;23.732;2023-10-09T09:13:42;95198.91;;;18.97;39.70
11329;BME280;5719;42.714;23.732;2023-10-09T09:16:15;95189.06;;;19.64;39.01
11329;BME280;5719;42.714;23.732;2023-10-09T09:18:56;95196.81;;;19.83;37.90
11329;BME280;5719;42.714;23.732;2023-10-09T09:21:29;95187.03;;;20.38;37.42
11329;BME280;5719;42.714;23.732;2023-10-09T09:24:04;95193.91;;;20.57;36.95
11329;BME280;5719;42.714;23.732;2023-10-09T09:26:41;95188.81;;;20.37;36.97
11329;BME280;5719;42.714;23.732;2023-10-09T09:29:12;95186.78;;;20.49;36.51
11329;BME280;5719;42.714;23.732;2023-10-09T09:31:52;95190.81;;;20.87;36.46
11329;BME280;5719;42.714;23.732;2023-10-09T09:34:19;95190.25;;;20.32;36.47
11329;BME280;5719;42.714;23.732;2023-10-09T09:36:52;95195.72;;;20.38;36.62
11329;BME280;5719;42.714;23.732;2023-10-09T09:39:25;95192.19;;;20.12;35.95
11329;BME280;5719;42.714;23.732;2023-10-09T09:41:56;95188.22;;;20.08;36.41
11329;BME280;5719;42.714;23.732;2023-10-09T09:44:31;95192.81;;;20.67;35.43
11329;BME280;5719;42.714;23.732;2023-10-09T09:47:00;95190.00;;;20.61;35.13
11329;BME280;5719;42.714;23.732;2023-10-09T09:49:27;95179.59;;;20.16;35.29
11329;BME280;5719;42.714;23.732;2023-10-09T09:51:58;95176.78;;;19.82;36.50
11329;BME280;5719;42.714;23.732;2023-10-09T09:54:28;95170.94;;;20.23;35.45
11329;BME280;5719;42.714;23.732;2023-10-09T09:56:59;95162.56;;;20.37;35.19
11329;BME280;5719;42.714;23.732;2023-10-09T09:59:37;95167.63;;;20.57;34.99
11329;BME280;5719;42.714;23.732;2023-10-09T10:02:09;95163.41;;;20.64;34.66
11329;BME280;5719;42.714;23.732;2023-10-09T10:04:39;95151.78;;;21.26;34.46
11329;BME280;5719;42.714;23.732;2023-10-09T10:07:08;95148.78;;;21.71;32.86
11329;BME280;5719;42.714;23.732;2023-10-09T10:09:40;95138.97;;;22.05;32.25
11329;BME280;5719;42.714;23.732;2023-10-09T10:12:11;95142.28;;;22.07;31.78
11329;BME280;5719;42.714;23.732;2023-10-09T10:14:52;95129.53;;;21.62;31.14
11329;BME280;5719;42.714;23.732;2023-10-09T10:17:22;95110.75;;;21.57;31.60
11329;BME280;5719;42.714;23.732;2023-10-09T10:20:02;95125.41;;;21.76;30.77
11329;BME280;5719;42.714;23.732;2023-10-09T10:22:51;95125.00;;;21.30;31.71
11329;BME280;5719;42.714;23.732;2023-10-09T10:25:33;95121.28;;;21.49;31.19
11329;BME280;5719;42.714;23.732;2023-10-09T10:28:16;95120.28;;;21.50;30.70
11329;BME280;5719;42.714;23.732;2023-10-09T10:30:54;95111.63;;;21.74;30.03
11329;BME280;5719;42.714;23.732;2023-10-09T10:33:21;95111.94;;;21.63;29.44
11329;BME280;5719;42.714;23.732;2023-10-09T10:35:50;95103.28;;;21.28;29.73
11329;BME280;5719;42.714;23.732;2023-10-09T10:38:31;95092.53;;;21.88;29.42
11329;BME280;5719;42.714;23.732;2023-10-09T10:41:12;95096.69;;;22.07;28.42
11329;BME280;5719;42.714;23.732;2023-10-09T10:43:42;95100.97;;;21.91;27.90
11329;BME280;5719;42.714;23.732;2023-10-09T10:46:21;95093.75;;;21.27;28.85
11329;BME280;5719;42.714;23.732;2023-10-09T10:48:56;95074.41;;;21.44;28.37
11329;BME280;5719;42.714;23.732;2023-10-09T10:51:26;95072.28;;;21.64;28.70
11329;BME280;5719;42.714;23.732;2023-10-09T10:54:01;95058.97;;;21.74;28.31
11329;BME280;5719;42.714;23.732;2023-10-09T10:56:50;95063.28;;;21.99;28.08
11329;BME280;5719;42.714;23.732;2023-10-09T10:59:17;95068.06;;;21.95;28.06
11329;BME280;5719;42.714;23.732;2023-10-09T11:01:51;95069.34;;;22.24;26.77
11329;BME280;5719;42.714;23.732;2023-10-09T11:04:19;95055.69;;;22.12;27.01
11329;BME280;5719;42.714;23.732;2023-10-09T11:06:53;95058.34;;;21.96;26.59
11329;BME280;5719;42.714;23.732;2023-10-09T11:09:26;95055.06;;;22.02;25.98
11329;BME280;5719;42.714;23.732;2023-10-09T11:12:05;95054.22;;;21.93;25.56
11329;BME280;5719;42.714;23.732;2023-10-09T11:14:47;95047.59;;;22.30;25.10
11329;BME280;5719;42.714;23.732;2023-10-09T11:17:31;95044.94;;;22.38;24.81
11329;BME280;5719;42.714;23.732;2023-10-09T11:20:01;95037.16;;;22.61;25.15
11329;BME280;5719;42.714;23.732;2023-10-09T11:22:49;95008.38;;;22.51;25.10
11329;BME280;5719;42.714;23.732;2023-10-09T11:25:42;95022.06;;;22.38;26.21
11329;BME280;5719;42.714;23.732;2023-10-09T11:28:18;95016.91;;;22.61;26.01
11329;BME280;5719;42.714;23.732;2023-10-09T11:30:55;95006.59;;;22.35;23.90
11329;BME280;5719;42.714;23.732;2023-10-09T11:33:22;95001.00;;;22.38;24.35
11329;BME280;5719;42.714;23.732;2023-10-09T11:35:56;95000.50;;;22.35;25.99
11329;BME280;5719;42.714;23.732;2023-10-09T11:38:26;94996.56;;;22.31;25.72
11329;BME280;5719;42.714;23.732;2023-10-09T11:41:11;94998.97;;;22.48;25.65
11329;BME280;5719;42.714;23.732;2023-10-09T11:43:50;95002.31;;;22.26;26.15
11329;BME280;5719;42.714;23.732;2023-10-09T11:46:20;94996.25;;;22.26;26.77
11329;BME280;5719;42.714;23.732;2023-10-09T11:49:05;94979.53;;;22.49;25.44
11329;BME280;5719;42.714;23.732;2023-10-09T11:51:49;94990.16;;;22.80;25.36
11329;BME280;5719;42.714;23.732;2023-10-09T11:54:50;94998.38;;;22.30;25.54
11329;BME280;5719;42.714;23.732;2023-10-09T11:57:15;94984.66;;;22.51;25.42
11329;BME280;5719;42.714;23.732;2023-10-09T11:59:44;94979.75;;;22.87;24.67
11329;BME280;5719;42.714;23.732;2023-10-09T12:02:17;94967.88;;;22.91;24.73
11329;BME280;5719;42.714;23.732;2023-10-09T12:04:46;94974.34;;;23.11;24.33
11329;BME280;5719;42.714;23.732;2023-10-09T12:07:14;94965.25;;;22.83;24.29
11329;BME280;5719;42.714;23.732;2023-10-09T12:09:41;94960.56;;;23.01;21.81
11329;BME280;5719;42.714;23.732;2023-10-09T12:12:08;94943.34;;;22.82;21.96
11329;BME280;5719;42.714;23.732;2023-10-09T12:14:35;94948.13;;;22.87;21.77
11329;BME280;5719;42.714;23.732;2023-10-09T12:17:06;94935.66;;;22.73;21.91
11329;BME280;5719;42.714;23.732;2023-10-09T12:19:33;94951.56;;;22.87;21.66
11329;BME280;5719;42.714;23.732;2023-10-09T12:22:00;94940.50;;;23.37;21.44
11329;BME280;5719;42.714;23.732;2023-10-09T12:24:29;94928.91;;;23.84;22.21
11329;BME280;5719;42.714;23.732;2023-10-09T12:26:56;94940.66;;;23.81;19.45
11329;BME280;5719;42.714;23.732;2023-10-09T12:29:23;94930.81;;;23.90;19.75
11329;BME280;5719;42.714;23.732;2023-10-09T12:31:55;94934.16;;;23.69;22.15
11329;BME280;5719;42.714;23.732;2023-10-09T12:34:26;94935.16;;;23.00;23.08
11329;BME280;5719;42.714;23.732;2023-10-09T12:36:53;94926.53;;;23.06;23.42
11329;BME280;5719;42.714;23.732;2023-10-09T12:39:20;94924.75;;;23.29;23.46
11329;BME280;5719;42.714;23.732;2023-10-09T12:41:48;94923.16;;;23.66;23.17
11329;BME280;5719;42.714;23.732;2023-10-09T12:44:19;94917.75;;;24.11;22.90
11329;BME280;5719;42.714;23.732;2023-10-09T12:46:46;94883.84;;;23.85;22.01
11329;BME280;5719;42.714;23.732;2023-10-09T12:49:18;94915.03;;;24.19;21.86
11329;BME280;5719;42.714;23.732;2023-10-09T12:51:52;94921.88;;;23.76;22.06
11329;BME280;5719;42.714;23.732;2023-10-09T12:54:18;94912.19;;;23.54;22.50
11329;BME280;5719;42.714;23.732;2023-10-09T12:56:52;94912.72;;;23.27;22.23
11329;BME280;5719;42.714;23.732;2023-10-09T12:59:19;94898.84;;;23.70;22.63
11329;BME280;5719;42.714;23.732;2023-10-09T13:01:48;94897.88;;;23.86;23.13
11329;BME280;5719;42.714;23.732;2023-10-09T13:04:19;94892.00;;;24.28;23.05
11329;BME280;5719;42.714;23.732;2023-10-09T13:06:49;94887.13;;;24.02;22.43
11329;BME280;5719;42.714;23.732;2023-10-09T13:09:20;94878.75;;;23.99;22.35
11329;BME280;5719;42.714;23.732;2023-10-09T13:11:58;94870.09;;;23.90;23.06
11329;BME280;5719;42.714;23.732;2023-10-09T13:14:26;94875.94;;;24.44;22.92
11329;BME280;5719;42.714;23.732;2023-10-09T13:16:52;94871.00;;;24.12;22.85
11329;BME280;5719;42.714;23.732;2023-10-09T13:19:20;94863.19;;;24.33;22.61
11329;BME280;5719;42.714;23.732;2023-10-09T13:21:50;94860.16;;;24.51;22.86
11329;BME280;5719;42.714;23.732;2023-10-09T13:24:18;94863.38;;;24.31;23.09
11329;BME280;5719;42.714;23.732;2023-10-09T13:26:51;94864.63;;;24.06;23.27
11329;BME280;5719;42.714;23.732;2023-10-09T13:29:23;94858.00;;;23.96;23.25
11329;BME280;5719;42.714;23.732;2023-10-09T13:31:50;94858.59;;;24.12;23.46
11329;BME280;5719;42.714;23.732;2023-10-09T13:34:22;94862.44;;;23.95;23.15
11329;BME280;5719;42.714;23.732;2023-10-09T13:36:53;94854.91;;;24.21;22.37
11329;BME280;5719;42.714;23.732;2023-10-09T13:39:22;94857.78;;;24.12;22.60